sensor_id;sensor_type;location;lat;lon;timestamp;P1;durP1;ratioP1;P2;durP2;ratioP2
58017;SDS011;43810;50.860;19.226;2022-08-21T00:00:31;78.32;;;28.98;;
58017;SDS011;43810;50.860;19.226;2022-08-21T00:03:07;72.72;;;28.95;;
58017;SDS011;43810;50.860;19.226;2022-08-21T00:05:35;71.63;;;29.08;;
58017;SDS011;43810;50.860;19.226;2022-08-21T00:08:01;69.05;;;29.02;;
58017;SDS011;43810;50.860;19.226;2022-08-21T00:10:26;75.00;;;28.40;;
58017;SDS011;43810;50.860;19.226;2022-08-21T00:12:52;85.07;;;29.42;;
58017;SDS011;43810;50.860;19.226;2022-08-21T00:15:20;76.93;;;30.67;;
58017;SDS011;43810;50.860;19.226;2022-08-21T00:17:46;77.28;;;29.58;;
58017;SDS011;43810;50.860;19.226;2022-08-21T00:20:15;82.68;;;29.95;;
58017;SDS011;43810;50.860;19.226;2022-08-21T00:22:41;89.97;;;29.52;;
58017;SDS011;43810;50.860;19.226;2022-08-21T00:25:07;92.30;;;32.30;;
58017;SDS011;43810;50.860;19.226;2022-08-21T00:27:33;87.07;;;30.77;;
58017;SDS011;43810;50.860;19.226;2022-08-21T00:29:59;95.82;;;30.55;;
58017;SDS011;43810;50.860;19.226;2022-08-21T00:32:25;89.15;;;31.63;;
58017;SDS011;43810;50.860;19.226;2022-08-21T00:34:52;99.63;;;33.05;;
58017;SDS011;43810;50.860;19.226;2022-08-21T00:37:17;93.10;;;33.38;;
58017;SDS011;43810;50.860;19.226;2022-08-21T00:39:44;88.53;;;31.55;;
58017;SDS011;43810;50.860;19.226;2022-08-21T00:42:11;96.45;;;31.17;;
58017;SDS011;43810;50.860;19.226;2022-08-21T00:44:41;91.32;;;32.00;;
58017;SDS011;43810;50.860;19.226;2022-08-21T00:47:07;101.63;;;31.60;;
58017;SDS011;43810;50.860;19.226;2022-08-21T00:49:33;87.22;;;31.48;;
58017;SDS011;43810;50.860;19.226;2022-08-21T00:51:59;94.82;;;32.97;;
58017;SDS011;43810;50.860;19.226;2022-08-21T00:54:27;98.20;;;31.70;;
58017;SDS011;43810;50.860;19.226;2022-08-21T00:56:54;104.10;;;33.92;;
58017;SDS011;43810;50.860;19.226;2022-08-21T00:59:21;114.20;;;35.60;;
58017;SDS011;43810;50.860;19.226;2022-08-21T01:01:47;106.80;;;32.50;;
58017;SDS011;43810;50.860;19.226;2022-08-21T01:04:13;106.80;;;34.45;;
58017;SDS011;43810;50.860;19.226;2022-08-21T01:06:40;118.63;;;35.53;;
58017;SDS011;43810;50.860;19.226;2022-08-21T01:09:05;113.25;;;33.78;;
58017;SDS011;43810;50.860;19.226;2022-08-21T01:11:31;100.63;;;31.67;;
58017;SDS011;43810;50.860;19.226;2022-08-21T01:13:57;103.50;;;34.78;;
58017;SDS011;43810;50.860;19.226;2022-08-21T01:16:23;108.97;;;34.65;;
58017;SDS011;43810;50.860;19.226;2022-08-21T01:18:49;118.78;;;34.00;;
58017;SDS011;43810;50.860;19.226;2022-08-21T01:21:25;125.65;;;34.60;;
58017;SDS011;43810;50.860;19.226;2022-08-21T01:23:52;123.80;;;34.92;;
58017;SDS011;43810;50.860;19.226;2022-08-21T01:26:20;120.32;;;34.33;;
58017;SDS011;43810;50.860;19.226;2022-08-21T01:28:54;114.55;;;34.67;;
58017;SDS011;43810;50.860;19.226;2022-08-21T01:31:22;119.97;;;36.78;;
58017;SDS011;43810;50.860;19.226;2022-08-21T01:33:48;122.40;;;36.35;;
58017;SDS011;43810;50.860;19.226;2022-08-21T01:36:14;116.10;;;35.63;;
58017;SDS011;43810;50.860;19.226;2022-08-21T01:38:39;119.35;;;35.78;;
58017;SDS011;43810;50.860;19.226;2022-08-21T01:41:05;135.25;;;38.17;;
58017;SDS011;43810;50.860;19.226;2022-08-21T01:43:30;120.97;;;35.97;;
58017;SDS011;43810;50.860;19.226;2022-08-21T01:45:56;111.72;;;35.03;;
58017;SDS011;43810;50.860;19.226;2022-08-21T01:48:21;93.95;;;33.72;;
58017;SDS011;43810;50.860;19.226;2022-08-21T01:50:47;109.22;;;34.78;;
58017;SDS011;43810;50.860;19.226;2022-08-21T01:53:13;100.25;;;33.88;;
58017;SDS011;43810;50.860;19.226;2022-08-21T01:55:41;101.10;;;34.45;;
58017;SDS011;43810;50.860;19.226;2022-08-21T01:58:06;125.85;;;36.47;;
58017;SDS011;43810;50.860;19.226;2022-08-21T02:00:32;116.32;;;38.30;;
58017;SDS011;43810;50.860;19.226;2022-08-21T02:02:58;100.43;;;34.25;;
58017;SDS011;43810;50.860;19.226;2022-08-21T02:05:23;109.93;;;33.15;;
58017;SDS011;43810;50.860;19.226;2022-08-21T02:07:50;91.30;;;33.83;;
58017;SDS011;43810;50.860;19.226;2022-08-21T02:10:18;72.75;;;30.63;;
58017;SDS011;43810;50.860;19.226;2022-08-21T02:12:44;92.15;;;32.38;;
58017;SDS011;43810;50.860;19.226;2022-08-21T02:15:10;82.10;;;30.08;;
58017;SDS011;43810;50.860;19.226;2022-08-21T02:17:37;78.93;;;30.63;;
58017;SDS011;43810;50.860;19.226;2022-08-21T02:20:03;73.32;;;31.00;;
58017;SDS011;43810;50.860;19.226;2022-08-21T02:22:28;81.93;;;32.67;;
58017;SDS011;43810;50.860;19.226;2022-08-21T02:24:54;74.78;;;31.15;;
58017;SDS011;43810;50.860;19.226;2022-08-21T02:27:19;85.88;;;33.15;;
58017;SDS011;43810;50.860;19.226;2022-08-21T02:29:45;88.40;;;31.30;;
58017;SDS011;43810;50.860;19.226;2022-08-21T02:32:10;85.43;;;32.90;;
58017;SDS011;43810;50.860;19.226;2022-08-21T02:34:36;109.50;;;36.58;;
58017;SDS011;43810;50.860;19.226;2022-08-21T02:37:02;87.18;;;33.70;;
58017;SDS011;43810;50.860;19.226;2022-08-21T02:39:27;119.85;;;39.28;;
58017;SDS011;43810;50.860;19.226;2022-08-21T02:41:53;106.18;;;35.88;;
58017;SDS011;43810;50.860;19.226;2022-08-21T02:44:18;101.20;;;35.83;;
58017;SDS011;43810;50.860;19.226;2022-08-21T02:46:44;110.22;;;38.92;;
58017;SDS011;43810;50.860;19.226;2022-08-21T02:49:09;121.93;;;38.50;;
58017;SDS011;43810;50.860;19.226;2022-08-21T02:51:35;103.60;;;36.67;;
58017;SDS011;43810;50.860;19.226;2022-08-21T02:54:00;123.03;;;38.75;;
58017;SDS011;43810;50.860;19.226;2022-08-21T02:56:26;121.30;;;38.47;;
58017;SDS011;43810;50.860;19.226;2022-08-21T02:58:52;107.70;;;36.67;;
58017;SDS011;43810;50.860;19.226;2022-08-21T03:01:17;104.18;;;36.47;;
58017;SDS011;43810;50.860;19.226;2022-08-21T03:03:43;103.18;;;34.67;;
58017;SDS011;43810;50.860;19.226;2022-08-21T03:06:11;116.53;;;35.85;;
58017;SDS011;43810;50.860;19.226;2022-08-21T03:08:38;119.95;;;35.65;;
58017;SDS011;43810;50.860;19.226;2022-08-21T03:11:04;109.93;;;36.55;;
58017;SDS011;43810;50.860;19.226;2022-08-21T03:13:30;114.63;;;38.50;;
58017;SDS011;43810;50.860;19.226;2022-08-21T03:15:56;112.10;;;38.28;;
58017;SDS011;43810;50.860;19.226;2022-08-21T03:18:21;111.75;;;38.22;;
58017;SDS011;43810;50.860;19.226;2022-08-21T03:20:47;117.32;;;39.28;;
58017;SDS011;43810;50.860;19.226;2022-08-21T03:23:13;111.43;;;37.42;;
58017;SDS011;43810;50.860;19.226;2022-08-21T03:25:40;113.07;;;39.00;;
58017;SDS011;43810;50.860;19.226;2022-08-21T03:28:11;104.18;;;37.58;;
58017;SDS011;43810;50.860;19.226;2022-08-21T03:30:38;109.13;;;37.97;;
58017;SDS011;43810;50.860;19.226;2022-08-21T03:33:03;100.45;;;35.83;;
58017;SDS011;43810;50.860;19.226;2022-08-21T03:35:29;94.93;;;36.50;;
58017;SDS011;43810;50.860;19.226;2022-08-21T03:37:54;87.07;;;34.83;;
58017;SDS011;43810;50.860;19.226;2022-08-21T03:40:21;83.90;;;34.40;;
58017;SDS011;43810;50.860;19.226;2022-08-21T03:42:47;80.78;;;32.03;;
58017;SDS011;43810;50.860;19.226;2022-08-21T03:45:13;80.18;;;33.10;;
58017;SDS011;43810;50.860;19.226;2022-08-21T03:47:39;72.72;;;32.53;;
58017;SDS011;43810;50.860;19.226;2022-08-21T03:50:05;67.30;;;32.75;;
58017;SDS011;43810;50.860;19.226;2022-08-21T03:52:31;57.65;;;28.77;;
58017;SDS011;43810;50.860;19.226;2022-08-21T03:54:56;61.08;;;29.60;;
58017;SDS011;43810;50.860;19.226;2022-08-21T03:57:22;56.42;;;28.58;;
58017;SDS011;43810;50.860;19.226;2022-08-21T03:59:48;50.83;;;27.52;;
58017;SDS011;43810;50.860;19.226;2022-08-21T04:02:14;56.58;;;28.05;;
58017;SDS011;43810;50.860;19.226;2022-08-21T04:04:42;55.13;;;28.27;;
58017;SDS011;43810;50.860;19.226;2022-08-21T04:07:08;53.10;;;28.35;;
58017;SDS011;43810;50.860;19.226;2022-08-21T04:09:33;52.85;;;27.75;;
58017;SDS011;43810;50.860;19.226;2022-08-21T04:11:59;48.55;;;26.35;;
58017;SDS011;43810;50.860;19.226;2022-08-21T04:14:25;51.97;;;27.33;;
58017;SDS011;43810;50.860;19.226;2022-08-21T04:16:50;57.05;;;27.83;;
58017;SDS011;43810;50.860;19.226;2022-08-21T04:19:16;40.22;;;25.48;;
58017;SDS011;43810;50.860;19.226;2022-08-21T04:21:42;47.97;;;27.40;;
58017;SDS011;43810;50.860;19.226;2022-08-21T04:24:08;50.70;;;27.10;;
58017;SDS011;43810;50.860;19.226;2022-08-21T04:26:35;44.85;;;25.90;;
58017;SDS011;43810;50.860;19.226;2022-08-21T04:29:01;52.42;;;28.15;;
58017;SDS011;43810;50.860;19.226;2022-08-21T04:31:26;49.47;;;26.67;;
58017;SDS011;43810;50.860;19.226;2022-08-21T04:33:54;53.08;;;27.65;;
58017;SDS011;43810;50.860;19.226;2022-08-21T04:36:20;43.47;;;26.38;;
58017;SDS011;43810;50.860;19.226;2022-08-21T04:38:45;47.08;;;27.15;;
58017;SDS011;43810;50.860;19.226;2022-08-21T04:41:11;45.30;;;26.38;;
58017;SDS011;43810;50.860;19.226;2022-08-21T04:43:38;43.15;;;25.65;;
58017;SDS011;43810;50.860;19.226;2022-08-21T04:46:03;46.33;;;26.08;;
58017;SDS011;43810;50.860;19.226;2022-08-21T04:48:29;44.33;;;25.58;;
58017;SDS011;43810;50.860;19.226;2022-08-21T04:55:52;46.05;;;25.38;;
58017;SDS011;43810;50.860;19.226;2022-08-21T04:58:20;43.85;;;24.63;;
58017;SDS011;43810;50.860;19.226;2022-08-21T05:00:46;42.88;;;25.40;;
58017;SDS011;43810;50.860;19.226;2022-08-21T05:03:13;45.45;;;24.98;;
58017;SDS011;43810;50.860;19.226;2022-08-21T05:05:40;46.65;;;25.88;;
58017;SDS011;43810;50.860;19.226;2022-08-21T05:08:05;39.47;;;24.80;;
58017;SDS011;43810;50.860;19.226;2022-08-21T05:10:33;44.00;;;25.42;;
58017;SDS011;43810;50.860;19.226;2022-08-21T05:12:58;41.58;;;24.40;;
58017;SDS011;43810;50.860;19.226;2022-08-21T05:15:25;45.63;;;24.50;;
58017;SDS011;43810;50.860;19.226;2022-08-21T05:17:51;43.10;;;25.35;;
58017;SDS011;43810;50.860;19.226;2022-08-21T05:20:17;35.85;;;23.35;;
58017;SDS011;43810;50.860;19.226;2022-08-21T05:22:43;36.08;;;24.10;;
58017;SDS011;43810;50.860;19.226;2022-08-21T05:25:09;36.85;;;23.88;;
58017;SDS011;43810;50.860;19.226;2022-08-21T05:27:35;45.33;;;24.38;;
58017;SDS011;43810;50.860;19.226;2022-08-21T05:30:01;40.17;;;24.48;;
58017;SDS011;43810;50.860;19.226;2022-08-21T05:32:26;39.90;;;23.85;;
58017;SDS011;43810;50.860;19.226;2022-08-21T05:34:53;39.88;;;20.95;;
58017;SDS011;43810;50.860;19.226;2022-08-21T05:37:19;35.67;;;22.95;;
58017;SDS011;43810;50.860;19.226;2022-08-21T05:39:44;36.78;;;22.20;;
58017;SDS011;43810;50.860;19.226;2022-08-21T05:42:10;29.25;;;19.38;;
58017;SDS011;43810;50.860;19.226;2022-08-21T05:44:35;30.48;;;20.58;;
58017;SDS011;43810;50.860;19.226;2022-08-21T05:47:02;30.45;;;20.42;;
58017;SDS011;43810;50.860;19.226;2022-08-21T05:49:28;30.08;;;18.98;;
58017;SDS011;43810;50.860;19.226;2022-08-21T05:51:53;31.05;;;20.77;;
58017;SDS011;43810;50.860;19.226;2022-08-21T05:54:19;28.75;;;19.88;;
58017;SDS011;43810;50.860;19.226;2022-08-21T05:56:45;30.05;;;19.50;;
58017;SDS011;43810;50.860;19.226;2022-08-21T05:59:10;30.75;;;18.75;;
58017;SDS011;43810;50.860;19.226;2022-08-21T06:01:36;27.25;;;19.75;;
58017;SDS011;43810;50.860;19.226;2022-08-21T06:04:01;32.33;;;20.70;;
58017;SDS011;43810;50.860;19.226;2022-08-21T06:06:27;31.13;;;19.02;;
58017;SDS011;43810;50.860;19.226;2022-08-21T06:08:53;27.20;;;18.27;;
58017;SDS011;43810;50.860;19.226;2022-08-21T06:11:18;29.83;;;19.05;;
58017;SDS011;43810;50.860;19.226;2022-08-21T06:13:44;25.00;;;17.60;;
58017;SDS011;43810;50.860;19.226;2022-08-21T06:16:14;27.70;;;18.55;;
58017;SDS011;43810;50.860;19.226;2022-08-21T06:18:40;31.08;;;18.80;;
58017;SDS011;43810;50.860;19.226;2022-08-21T06:21:05;26.27;;;19.38;;
58017;SDS011;43810;50.860;19.226;2022-08-21T06:23:32;32.38;;;19.10;;
58017;SDS011;43810;50.860;19.226;2022-08-21T06:25:57;25.95;;;19.50;;
58017;SDS011;43810;50.860;19.226;2022-08-21T06:28:23;28.23;;;19.27;;
58017;SDS011;43810;50.860;19.226;2022-08-21T06:30:49;31.65;;;20.42;;
58017;SDS011;43810;50.860;19.226;2022-08-21T06:33:15;28.13;;;18.85;;
58017;SDS011;43810;50.860;19.226;2022-08-21T06:35:40;28.13;;;18.17;;
58017;SDS011;43810;50.860;19.226;2022-08-21T06:38:06;32.25;;;19.50;;
58017;SDS011;43810;50.860;19.226;2022-08-21T06:40:32;28.95;;;19.13;;
58017;SDS011;43810;50.860;19.226;2022-08-21T06:42:57;28.77;;;19.08;;
58017;SDS011;43810;50.860;19.226;2022-08-21T06:45:23;28.45;;;20.10;;
58017;SDS011;43810;50.860;19.226;2022-08-21T06:47:49;27.08;;;19.33;;
58017;SDS011;43810;50.860;19.226;2022-08-21T06:50:15;26.48;;;18.80;;
58017;SDS011;43810;50.860;19.226;2022-08-21T06:52:40;23.85;;;17.88;;
58017;SDS011;43810;50.860;19.226;2022-08-21T06:55:07;26.80;;;17.88;;
58017;SDS011;43810;50.860;19.226;2022-08-21T06:57:33;26.65;;;19.52;;
58017;SDS011;43810;50.860;19.226;2022-08-21T06:59:59;26.48;;;18.88;;
58017;SDS011;43810;50.860;19.226;2022-08-21T07:02:24;23.88;;;18.15;;
58017;SDS011;43810;50.860;19.226;2022-08-21T07:04:50;24.63;;;17.95;;
58017;SDS011;43810;50.860;19.226;2022-08-21T07:07:16;28.45;;;19.30;;
58017;SDS011;43810;50.860;19.226;2022-08-21T07:09:42;24.90;;;18.02;;
58017;SDS011;43810;50.860;19.226;2022-08-21T07:12:07;23.75;;;17.60;;
58017;SDS011;43810;50.860;19.226;2022-08-21T07:14:34;26.33;;;17.98;;
58017;SDS011;43810;50.860;19.226;2022-08-21T07:17:00;26.77;;;17.70;;
58017;SDS011;43810;50.860;19.226;2022-08-21T07:19:25;28.27;;;18.20;;
58017;SDS011;43810;50.860;19.226;2022-08-21T07:21:52;27.13;;;18.15;;
58017;SDS011;43810;50.860;19.226;2022-08-21T07:24:18;26.70;;;18.10;;
58017;SDS011;43810;50.860;19.226;2022-08-21T07:26:44;26.80;;;18.15;;
58017;SDS011;43810;50.860;19.226;2022-08-21T07:29:10;24.63;;;17.83;;
58017;SDS011;43810;50.860;19.226;2022-08-21T07:31:35;30.30;;;17.05;;
58017;SDS011;43810;50.860;19.226;2022-08-21T07:34:01;28.83;;;17.70;;
58017;SDS011;43810;50.860;19.226;2022-08-21T07:36:27;26.25;;;18.38;;
58017;SDS011;43810;50.860;19.226;2022-08-21T07:38:52;34.25;;;19.90;;
58017;SDS011;43810;50.860;19.226;2022-08-21T07:41:20;29.90;;;21.38;;
58017;SDS011;43810;50.860;19.226;2022-08-21T07:43:46;42.17;;;24.90;;
58017;SDS011;43810;50.860;19.226;2022-08-21T07:46:11;34.10;;;23.40;;
58017;SDS011;43810;50.860;19.226;2022-08-21T07:48:37;35.72;;;22.65;;
58017;SDS011;43810;50.860;19.226;2022-08-21T07:51:07;49.58;;;29.48;;
58017;SDS011;43810;50.860;19.226;2022-08-21T07:53:33;43.63;;;28.10;;
58017;SDS011;43810;50.860;19.226;2022-08-21T07:55:59;52.72;;;29.77;;
58017;SDS011;43810;50.860;19.226;2022-08-21T07:58:25;54.35;;;30.40;;
58017;SDS011;43810;50.860;19.226;2022-08-21T08:00:51;50.38;;;29.67;;
58017;SDS011;43810;50.860;19.226;2022-08-21T08:03:16;44.78;;;27.90;;
58017;SDS011;43810;50.860;19.226;2022-08-21T08:05:42;53.05;;;29.63;;
58017;SDS011;43810;50.860;19.226;2022-08-21T08:08:08;53.25;;;28.35;;
58017;SDS011;43810;50.860;19.226;2022-08-21T08:10:34;53.20;;;27.67;;
58017;SDS011;43810;50.860;19.226;2022-08-21T08:13:00;47.85;;;28.17;;
58017;SDS011;43810;50.860;19.226;2022-08-21T08:15:26;48.63;;;28.42;;
58017;SDS011;43810;50.860;19.226;2022-08-21T08:17:52;50.78;;;27.85;;
58017;SDS011;43810;50.860;19.226;2022-08-21T08:20:20;40.92;;;24.33;;
58017;SDS011;43810;50.860;19.226;2022-08-21T08:22:46;39.22;;;24.88;;
58017;SDS011;43810;50.860;19.226;2022-08-21T08:25:13;41.13;;;24.33;;
58017;SDS011;43810;50.860;19.226;2022-08-21T08:27:39;41.45;;;24.33;;
58017;SDS011;43810;50.860;19.226;2022-08-21T08:30:06;38.30;;;24.83;;
58017;SDS011;43810;50.860;19.226;2022-08-21T08:32:31;47.33;;;24.23;;
58017;SDS011;43810;50.860;19.226;2022-08-21T08:34:57;40.55;;;24.38;;
58017;SDS011;43810;50.860;19.226;2022-08-21T08:37:23;38.53;;;24.58;;
58017;SDS011;43810;50.860;19.226;2022-08-21T08:39:48;44.60;;;25.67;;
58017;SDS011;43810;50.860;19.226;2022-08-21T08:42:16;40.95;;;23.08;;
58017;SDS011;43810;50.860;19.226;2022-08-21T08:44:43;40.40;;;23.98;;
58017;SDS011;43810;50.860;19.226;2022-08-21T08:47:14;43.58;;;24.33;;
58017;SDS011;43810;50.860;19.226;2022-08-21T08:52:19;39.42;;;23.00;;
58017;SDS011;43810;50.860;19.226;2022-08-21T08:54:48;42.45;;;23.65;;
58017;SDS011;43810;50.860;19.226;2022-08-21T08:57:17;48.38;;;24.95;;
58017;SDS011;43810;50.860;19.226;2022-08-21T08:59:46;37.15;;;23.63;;
58017;SDS011;43810;50.860;19.226;2022-08-21T09:02:13;34.83;;;22.02;;
58017;SDS011;43810;50.860;19.226;2022-08-21T09:04:40;40.15;;;22.95;;
58017;SDS011;43810;50.860;19.226;2022-08-21T09:09:46;38.47;;;22.60;;
58017;SDS011;43810;50.860;19.226;2022-08-21T09:12:23;31.77;;;21.02;;
58017;SDS011;43810;50.860;19.226;2022-08-21T09:20:19;28.48;;;17.30;;
58017;SDS011;43810;50.860;19.226;2022-08-21T09:25:28;25.02;;;16.90;;
58017;SDS011;43810;50.860;19.226;2022-08-21T09:27:56;22.40;;;14.02;;
58017;SDS011;43810;50.860;19.226;2022-08-21T09:30:29;24.50;;;15.50;;
58017;SDS011;43810;50.860;19.226;2022-08-21T09:32:56;23.92;;;15.98;;
58017;SDS011;43810;50.860;19.226;2022-08-21T09:35:23;28.38;;;16.45;;
58017;SDS011;43810;50.860;19.226;2022-08-21T09:40:30;22.40;;;15.82;;
58017;SDS011;43810;50.860;19.226;2022-08-21T09:42:57;24.25;;;16.17;;
58017;SDS011;43810;50.860;19.226;2022-08-21T09:45:23;28.55;;;17.15;;
58017;SDS011;43810;50.860;19.226;2022-08-21T09:47:48;23.08;;;15.27;;
58017;SDS011;43810;50.860;19.226;2022-08-21T09:50:19;26.30;;;15.13;;
58017;SDS011;43810;50.860;19.226;2022-08-21T09:52:46;29.88;;;16.17;;
58017;SDS011;43810;50.860;19.226;2022-08-21T09:55:20;20.98;;;14.38;;
58017;SDS011;43810;50.860;19.226;2022-08-21T09:58:05;21.38;;;13.18;;
58017;SDS011;43810;50.860;19.226;2022-08-21T10:00:33;20.67;;;15.68;;
58017;SDS011;43810;50.860;19.226;2022-08-21T10:05:34;21.80;;;15.55;;
58017;SDS011;43810;50.860;19.226;2022-08-21T10:08:00;21.38;;;16.40;;
58017;SDS011;43810;50.860;19.226;2022-08-21T10:10:26;21.55;;;15.57;;
58017;SDS011;43810;50.860;19.226;2022-08-21T10:18:07;19.45;;;15.50;;
58017;SDS011;43810;50.860;19.226;2022-08-21T10:20:40;20.50;;;15.32;;
58017;SDS011;43810;50.860;19.226;2022-08-21T10:33:53;21.02;;;15.88;;
58017;SDS011;43810;50.860;19.226;2022-08-21T10:36:27;18.50;;;15.80;;
58017;SDS011;43810;50.860;19.226;2022-08-21T10:44:23;18.55;;;16.02;;
58017;SDS011;43810;50.860;19.226;2022-08-21T10:52:09;17.77;;;15.13;;
58017;SDS011;43810;50.860;19.226;2022-08-21T10:57:51;18.95;;;15.10;;
58017;SDS011;43810;50.860;19.226;2022-08-21T11:00:13;21.70;;;15.00;;
58017;SDS011;43810;50.860;19.226;2022-08-21T11:02:45;20.70;;;16.05;;
58017;SDS011;43810;50.860;19.226;2022-08-21T11:05:17;20.38;;;15.70;;
58017;SDS011;43810;50.860;19.226;2022-08-21T11:07:48;24.05;;;15.95;;
58017;SDS011;43810;50.860;19.226;2022-08-21T11:10:20;22.40;;;15.93;;
58017;SDS011;43810;50.860;19.226;2022-08-21T11:12:48;18.13;;;15.00;;
58017;SDS011;43810;50.860;19.226;2022-08-21T11:17:45;22.30;;;15.52;;
58017;SDS011;43810;50.860;19.226;2022-08-21T11:20:15;24.67;;;16.00;;
58017;SDS011;43810;50.860;19.226;2022-08-21T11:22:47;22.48;;;16.20;;
58017;SDS011;43810;50.860;19.226;2022-08-21T11:25:17;19.60;;;15.68;;
58017;SDS011;43810;50.860;19.226;2022-08-21T11:39:02;21.63;;;12.52;;
58017;SDS011;43810;50.860;19.226;2022-08-21T11:41:34;13.77;;;11.77;;
58017;SDS011;43810;50.860;19.226;2022-08-21T11:44:16;16.17;;;12.15;;
58017;SDS011;43810;50.860;19.226;2022-08-21T11:47:03;15.73;;;11.25;;
58017;SDS011;43810;50.860;19.226;2022-08-21T11:52:03;8.88;;;7.85;;
58017;SDS011;43810;50.860;19.226;2022-08-21T11:54:46;8.88;;;5.80;;
58017;SDS011;43810;50.860;19.226;2022-08-21T11:57:16;5.45;;;4.90;;
58017;SDS011;43810;50.860;19.226;2022-08-21T11:59:45;8.35;;;3.90;;
58017;SDS011;43810;50.860;19.226;2022-08-21T12:02:13;3.90;;;3.00;;
58017;SDS011;43810;50.860;19.226;2022-08-21T12:04:50;6.00;;;3.00;;
58017;SDS011;43810;50.860;19.226;2022-08-21T12:07:28;5.65;;;3.20;;
58017;SDS011;43810;50.860;19.226;2022-08-21T12:09:55;4.68;;;3.35;;
58017;SDS011;43810;50.860;19.226;2022-08-21T12:15:03;3.80;;;2.97;;
58017;SDS011;43810;50.860;19.226;2022-08-21T12:17:36;4.18;;;2.60;;
58017;SDS011;43810;50.860;19.226;2022-08-21T12:20:15;3.53;;;2.70;;
58017;SDS011;43810;50.860;19.226;2022-08-21T12:22:47;5.30;;;2.88;;
58017;SDS011;43810;50.860;19.226;2022-08-21T12:25:16;2.83;;;2.47;;
58017;SDS011;43810;50.860;19.226;2022-08-21T12:30:18;2.38;;;2.17;;
58017;SDS011;43810;50.860;19.226;2022-08-21T12:32:46;3.15;;;2.42;;
58017;SDS011;43810;50.860;19.226;2022-08-21T12:35:21;2.97;;;2.25;;
58017;SDS011;43810;50.860;19.226;2022-08-21T12:40:22;4.18;;;2.72;;
58017;SDS011;43810;50.860;19.226;2022-08-21T12:42:50;6.90;;;3.42;;
58017;SDS011;43810;50.860;19.226;2022-08-21T12:45:28;6.00;;;3.65;;
58017;SDS011;43810;50.860;19.226;2022-08-21T12:50:44;4.68;;;4.20;;
58017;SDS011;43810;50.860;19.226;2022-08-21T12:55:45;3.92;;;3.53;;
58017;SDS011;43810;50.860;19.226;2022-08-21T12:58:21;4.38;;;3.28;;
58017;SDS011;43810;50.860;19.226;2022-08-21T13:00:48;3.03;;;2.70;;
58017;SDS011;43810;50.860;19.226;2022-08-21T13:03:14;6.15;;;3.60;;
58017;SDS011;43810;50.860;19.226;2022-08-21T13:05:41;2.80;;;2.60;;
58017;SDS011;43810;50.860;19.226;2022-08-21T13:08:07;2.65;;;2.45;;
58017;SDS011;43810;50.860;19.226;2022-08-21T13:10:34;3.35;;;2.67;;
58017;SDS011;43810;50.860;19.226;2022-08-21T13:13:05;3.88;;;2.22;;
58017;SDS011;43810;50.860;19.226;2022-08-21T13:15:32;2.47;;;2.20;;
58017;SDS011;43810;50.860;19.226;2022-08-21T13:17:59;1.50;;;1.30;;
58017;SDS011;43810;50.860;19.226;2022-08-21T13:20:35;3.55;;;1.55;;
58017;SDS011;43810;50.860;19.226;2022-08-21T13:25:28;2.22;;;1.85;;
58017;SDS011;43810;50.860;19.226;2022-08-21T13:27:59;2.47;;;2.10;;
58017;SDS011;43810;50.860;19.226;2022-08-21T13:30:25;2.80;;;2.60;;
58017;SDS011;43810;50.860;19.226;2022-08-21T13:32:54;3.15;;;2.85;;
58017;SDS011;43810;50.860;19.226;2022-08-21T13:38:06;5.00;;;3.20;;
58017;SDS011;43810;50.860;19.226;2022-08-21T13:40:44;6.30;;;3.53;;
58017;SDS011;43810;50.860;19.226;2022-08-21T13:43:12;8.57;;;4.72;;
58017;SDS011;43810;50.860;19.226;2022-08-21T13:45:38;5.72;;;4.90;;
58017;SDS011;43810;50.860;19.226;2022-08-21T13:48:08;7.95;;;5.70;;
58017;SDS011;43810;50.860;19.226;2022-08-21T13:50:34;7.45;;;5.43;;
58017;SDS011;43810;50.860;19.226;2022-08-21T13:53:01;8.10;;;6.00;;
58017;SDS011;43810;50.860;19.226;2022-08-21T13:55:39;9.90;;;7.25;;
58017;SDS011;43810;50.860;19.226;2022-08-21T13:58:05;10.73;;;7.82;;
58017;SDS011;43810;50.860;19.226;2022-08-21T14:00:31;11.88;;;9.52;;
58017;SDS011;43810;50.860;19.226;2022-08-21T14:03:02;13.98;;;10.32;;
58017;SDS011;43810;50.860;19.226;2022-08-21T14:05:30;13.93;;;11.35;;
58017;SDS011;43810;50.860;19.226;2022-08-21T14:08:46;13.57;;;10.95;;
58017;SDS011;43810;50.860;19.226;2022-08-21T14:10:43;15.65;;;10.77;;
58017;SDS011;43810;50.860;19.226;2022-08-21T14:13:29;15.43;;;11.68;;
58017;SDS011;43810;50.860;19.226;2022-08-21T14:15:57;14.70;;;11.07;;
58017;SDS011;43810;50.860;19.226;2022-08-21T14:18:23;14.65;;;11.25;;
58017;SDS011;43810;50.860;19.226;2022-08-21T14:20:51;17.13;;;12.57;;
58017;SDS011;43810;50.860;19.226;2022-08-21T14:23:26;20.00;;;13.38;;
58017;SDS011;43810;50.860;19.226;2022-08-21T14:25:52;16.80;;;12.50;;
58017;SDS011;43810;50.860;19.226;2022-08-21T14:30:45;17.02;;;13.10;;
58017;SDS011;43810;50.860;19.226;2022-08-21T14:33:11;19.65;;;12.43;;
58017;SDS011;43810;50.860;19.226;2022-08-21T14:35:38;19.45;;;12.82;;
58017;SDS011;43810;50.860;19.226;2022-08-21T14:38:14;17.17;;;12.63;;
58017;SDS011;43810;50.860;19.226;2022-08-21T14:40:40;17.80;;;12.18;;
58017;SDS011;43810;50.860;19.226;2022-08-21T14:43:07;18.63;;;12.63;;
58017;SDS011;43810;50.860;19.226;2022-08-21T14:45:33;18.65;;;14.00;;
58017;SDS011;43810;50.860;19.226;2022-08-21T14:47:59;21.08;;;14.32;;
58017;SDS011;43810;50.860;19.226;2022-08-21T14:50:25;17.88;;;13.57;;
58017;SDS011;43810;50.860;19.226;2022-08-21T14:52:50;20.70;;;14.65;;
58017;SDS011;43810;50.860;19.226;2022-08-21T14:55:17;19.55;;;13.45;;
58017;SDS011;43810;50.860;19.226;2022-08-21T14:57:44;21.05;;;14.70;;
58017;SDS011;43810;50.860;19.226;2022-08-21T15:00:11;23.20;;;15.02;;
58017;SDS011;43810;50.860;19.226;2022-08-21T15:02:37;25.50;;;16.73;;
58017;SDS011;43810;50.860;19.226;2022-08-21T15:05:03;23.40;;;15.40;;
58017;SDS011;43810;50.860;19.226;2022-08-21T15:07:29;23.92;;;16.58;;
58017;SDS011;43810;50.860;19.226;2022-08-21T15:09:55;25.90;;;16.88;;
58017;SDS011;43810;50.860;19.226;2022-08-21T15:12:20;25.60;;;16.80;;
58017;SDS011;43810;50.860;19.226;2022-08-21T15:14:46;26.77;;;17.08;;
58017;SDS011;43810;50.860;19.226;2022-08-21T15:17:12;28.52;;;16.77;;
58017;SDS011;43810;50.860;19.226;2022-08-21T15:19:37;31.92;;;18.08;;
58017;SDS011;43810;50.860;19.226;2022-08-21T15:22:03;33.33;;;19.42;;
58017;SDS011;43810;50.860;19.226;2022-08-21T15:24:29;33.00;;;19.52;;
58017;SDS011;43810;50.860;19.226;2022-08-21T15:26:55;32.53;;;19.23;;
58017;SDS011;43810;50.860;19.226;2022-08-21T15:29:21;36.38;;;19.33;;
58017;SDS011;43810;50.860;19.226;2022-08-21T15:31:51;41.25;;;20.98;;
58017;SDS011;43810;50.860;19.226;2022-08-21T15:34:18;40.60;;;21.45;;
58017;SDS011;43810;50.860;19.226;2022-08-21T15:36:43;40.85;;;21.92;;
58017;SDS011;43810;50.860;19.226;2022-08-21T15:39:09;40.38;;;21.77;;
58017;SDS011;43810;50.860;19.226;2022-08-21T15:41:34;47.30;;;21.80;;